Time;durP1;ratioP1;P1;durP2;ratioP2;P2;SDS_P1;SDS_P2;PMS_P1;PMS_P2;Temp;Humidity;BMP_temperature;BMP_pressure;BME280_temperature;BME280_humidity;BME280_pressure;Samples;Min_cycle;Max_cycle;Signal;HPM_P1;HPM_P2
2023/04/26 00:01:02;;;;;;;4.50;2.03;;;20.50;67.40;;;;;;4168364;28;20033;-46
2023/04/26 00:03:26;;;;;;;4.72;2.10;;;20.50;67.40;;;;;;4173675;28;20043;-47
2023/04/26 00:05:48;;;;;;;5.18;2.00;;;20.40;67.30;;;;;;4168361;28;20075;-44
2023/04/26 00:08:11;;;;;;;3.10;1.80;;;20.40;67.40;;;;;;4164456;28;20041;-45
2023/04/26 00:10:33;;;;;;;2.72;1.63;;;20.40;67.40;;;;;;4174001;28;20055;-43
2023/04/26 00:12:56;;;;;;;5.63;2.40;;;20.50;67.50;;;;;;4174364;28;20049;-47
2023/04/26 00:15:18;;;;;;;4.07;2.00;;;20.40;67.40;;;;;;4172585;28;20030;-48
2023/04/26 00:17:41;;;;;;;3.75;1.92;;;20.50;67.40;;;;;;4166488;28;20045;-47
2023/04/26 00:20:08;;;;;;;3.67;1.75;;;20.50;68.00;;;;;;4175489;28;20043;-46
2023/04/26 00:22:30;;;;;;;3.50;1.67;;;20.50;67.30;;;;;;4171715;28;20029;-45
2023/04/26 00:24:52;;;;;;;3.35;1.60;;;20.50;67.30;;;;;;4169938;28;20405;-45
2023/04/26 00:27:15;;;;;;;3.85;1.75;;;20.60;67.30;;;;;;4167504;28;20112;-48
2023/04/26 00:29:38;;;;;;;2.92;1.65;;;20.60;67.30;;;;;;4170692;28;20029;-51
2023/04/26 00:32:00;;;;;;;4.82;1.98;;;20.60;67.30;;;;;;4171771;28;20127;-47
2023/04/26 00:34:23;;;;;;;3.20;1.90;;;20.50;67.30;;;;;;4175420;28;20041;-49
2023/04/26 00:36:45;;;;;;;3.70;2.25;;;20.50;68.00;;;;;;4169107;28;20134;-49
2023/04/26 00:39:08;;;;;;;4.20;2.03;;;20.60;67.30;;;;;;4174106;28;20079;-47
2023/04/26 00:41:30;;;;;;;4.20;1.92;;;20.60;67.30;;;;;;4174351;28;20467;-46
2023/04/26 00:43:53;;;;;;;5.00;2.38;;;20.60;67.30;;;;;;4167405;28;20037;-48
2023/04/26 00:46:15;;;;;;;5.57;2.08;;;20.60;67.30;;;;;;4174354;28;20374;-48
2023/04/26 00:48:38;;;;;;;3.47;2.00;;;20.60;67.30;;;;;;4150317;28;20083;-51
2023/04/26 00:51:00;;;;;;;5.65;2.15;;;20.60;67.30;;;;;;4175239;28;20086;-46
2023/04/26 00:53:24;;;;;;;5.13;1.77;;;20.70;67.30;;;;;;4174390;28;20455;-49
2023/04/26 00:55:47;;;;;;;3.90;2.22;;;20.70;67.20;;;;;;4156969;28;20120;-44
2023/04/26 00:58:10;;;;;;;4.07;1.92;;;20.70;67.30;;;;;;4170776;28;20412;-48
2023/04/26 01:00:33;;;;;;;4.63;2.30;;;20.70;67.30;;;;;;4173699;28;20037;-52
2023/04/26 01:02:55;;;;;;;5.07;1.92;;;20.70;67.40;;;;;;4171402;28;20382;-48
2023/04/26 01:05:18;;;;;;;4.63;2.22;;;20.70;67.40;;;;;;4169665;28;20041;-49
2023/04/26 01:07:40;;;;;;;4.53;2.00;;;20.70;67.40;;;;;;4172250;28;20393;-47
2023/04/26 01:10:04;;;;;;;4.78;2.03;;;20.70;67.40;;;;;;4168052;28;20518;-44
2023/04/26 01:12:28;;;;;;;3.72;2.05;;;20.80;67.50;;;;;;4177716;28;20033;-50
2023/04/26 01:14:51;;;;;;;5.80;2.40;;;20.80;68.00;;;;;;4164676;28;20049;-52
2023/04/26 01:17:14;;;;;;;5.43;1.80;;;20.80;67.70;;;;;;4175679;28;20054;-48
2023/04/26 01:19:45;;;;;;;3.45;2.10;;;20.80;67.60;;;;;;4178099;28;20447;-51
2023/04/26 01:22:08;;;;;;;5.97;2.00;;;20.80;67.70;;;;;;4175692;28;20041;-47
2023/04/26 01:24:32;;;;;;;4.35;2.45;;;20.80;67.80;;;;;;4177641;28;21062;-46
2023/04/26 01:26:54;;;;;;;3.22;1.92;;;20.80;67.80;;;;;;4176297;28;20104;-46
2023/04/26 01:29:23;;;;;;;4.05;1.90;;;20.80;68.10;;;;;;4176979;28;20060;-48
2023/04/26 01:31:46;;;;;;;5.50;2.22;;;20.80;67.80;;;;;;4161769;28;20055;-46
2023/04/26 01:34:09;;;;;;;5.40;2.30;;;20.90;67.90;;;;;;4177340;28;20048;-51
2023/04/26 01:36:31;;;;;;;3.33;1.85;;;20.90;67.80;;;;;;4176972;28;20653;-46
2023/04/26 01:38:54;;;;;;;5.03;2.17;;;20.90;67.80;;;;;;4176405;28;20048;-49
2023/04/26 01:41:16;;;;;;;5.45;1.80;;;20.90;67.80;;;;;;4177218;28;20032;-48
2023/04/26 01:43:39;;;;;;;5.13;1.73;;;20.90;67.90;;;;;;4175054;28;20041;-48
2023/04/26 01:46:01;;;;;;;5.63;1.92;;;20.90;67.80;;;;;;4156321;28;20056;-47
2023/04/26 01:48:24;;;;;;;3.83;1.80;;;21.00;67.90;;;;;;4174845;28;20103;-51
2023/04/26 01:50:46;;;;;;;2.80;1.60;;;21.00;67.90;;;;;;4155137;28;20044;-47
2023/04/26 01:53:08;;;;;;;4.25;1.90;;;21.00;67.90;;;;;;4171845;28;20416;-50
2023/04/26 01:55:31;;;;;;;4.10;1.83;;;21.00;67.90;;;;;;4173341;28;20051;-45
2023/04/26 01:57:53;;;;;;;4.53;1.98;;;21.00;67.80;;;;;;4176888;28;20045;-49
2023/04/26 02:00:16;;;;;;;6.53;2.25;;;21.00;67.90;;;;;;4174632;28;20811;-45
2023/04/26 02:02:38;;;;;;;3.63;1.90;;;21.00;68.00;;;;;;4164991;28;20483;-46
2023/04/26 02:05:01;;;;;;;5.68;1.90;;;21.00;67.90;;;;;;4174878;28;20040;-48
2023/04/26 02:07:23;;;;;;;6.20;1.80;;;21.00;68.00;;;;;;4171350;28;20029;-44
2023/04/26 02:09:46;;;;;;;3.25;1.95;;;21.00;68.00;;;;;;4173712;28;20047;-51
2023/04/26 02:12:08;;;;;;;6.22;2.30;;;21.00;68.00;;;;;;4175795;28;20071;-49
2023/04/26 02:14:31;;;;;;;3.42;2.10;;;21.10;68.00;;;;;;4175083;28;20080;-44
2023/04/26 02:16:53;;;;;;;6.15;2.47;;;21.00;68.00;;;;;;4174167;28;20033;-50
2023/04/26 02:19:16;;;;;;;4.25;2.00;;;21.00;68.00;;;;;;4173329;28;20443;-50
2023/04/26 02:21:56;;;;;;;6.07;2.30;;;21.00;68.10;;;;;;4167020;28;20040;-50
2023/04/26 02:24:19;;;;;;;4.90;1.90;;;21.10;68.10;;;;;;4174044;28;20033;-49
2023/04/26 02:26:41;;;;;;;4.57;1.90;;;21.10;68.10;;;;;;4172102;28;20037;-49
2023/04/26 02:29:03;;;;;;;4.20;1.75;;;21.10;68.10;;;;;;4164964;28;20040;-45
2023/04/26 02:31:27;;;;;;;5.15;2.75;;;21.10;68.10;;;;;;4168105;28;20922;-52
2023/04/26 02:33:50;;;;;;;5.82;2.28;;;21.10;68.10;;;;;;4165778;28;20042;-51
2023/04/26 02:36:12;;;;;;;3.45;1.95;;;21.10;68.00;;;;;;4171590;28;20033;-47
2023/04/26 02:38:35;;;;;;;4.85;2.38;;;21.10;68.10;;;;;;4168452;28;20034;-51
2023/04/26 02:41:02;;;;;;;3.97;2.00;;;21.20;68.10;;;;;;4174213;28;20033;-53
2023/04/26 02:43:24;;;;;;;3.85;1.90;;;21.20;68.10;;;;;;4160471;28;20044;-47
2023/04/26 02:45:47;;;;;;;5.78;2.25;;;21.20;68.10;;;;;;4174519;28;20036;-51
2023/04/26 02:48:09;;;;;;;6.15;2.17;;;21.20;68.10;;;;;;4174848;28;20083;-49
2023/04/26 02:50:32;;;;;;;6.68;1.80;;;21.20;68.10;;;;;;4174438;28;20041;-50
2023/04/26 02:52:54;;;;;;;4.75;2.22;;;21.20;68.10;;;;;;4159991;28;20053;-47
2023/04/26 02:55:17;;;;;;;3.65;1.88;;;21.20;68.00;;;;;;4164114;28;20056;-44
2023/04/26 02:57:39;;;;;;;4.57;2.00;;;21.20;68.10;;;;;;4169819;28;20112;-44
2023/04/26 03:00:04;;;;;;;4.15;1.92;;;21.20;68.00;;;;;;4169097;28;20405;-49
2023/04/26 03:02:26;;;;;;;3.88;2.03;;;21.30;68.10;;;;;;4171410;28;20044;-47
2023/04/26 03:04:49;;;;;;;5.20;2.50;;;21.30;68.00;;;;;;4173987;28;20032;-52
2023/04/26 03:07:11;;;;;;;3.90;1.88;;;21.30;68.10;;;;;;4162790;28;20815;-49
2023/04/26 03:09:36;;;;;;;3.17;1.50;;;21.30;68.00;;;;;;4172038;28;20044;-47
2023/04/26 03:11:59;;;;;;;2.28;1.23;;;21.40;68.00;;;;;;4166592;28;20029;-48
2023/04/26 03:14:22;;;;;;;3.83;1.67;;;21.40;68.00;;;;;;4174892;28;20084;-45
2023/04/26 03:16:44;;;;;;;6.38;2.08;;;21.40;68.00;;;;;;4166606;28;20033;-50
2023/04/26 03:19:07;;;;;;;4.75;2.03;;;21.40;67.90;;;;;;4161354;28;20413;-44
2023/04/26 03:21:30;;;;;;;4.47;1.95;;;21.50;67.90;;;;;;4174018;28;20084;-46
2023/04/26 03:23:53;;;;;;;5.13;1.90;;;21.50;68.00;;;;;;4175328;28;20044;-49
2023/04/26 03:26:15;;;;;;;4.03;1.73;;;21.50;67.90;;;;;;4164020;28;20112;-44
2023/04/26 03:28:38;;;;;;;4.32;1.90;;;21.50;68.00;;;;;;4175213;28;20048;-48
2023/04/26 03:31:01;;;;;;;3.53;1.90;;;21.50;67.80;;;;;;4162941;28;20505;-46
2023/04/26 03:33:24;;;;;;;3.70;1.67;;;21.60;67.80;;;;;;4173274;28;20045;-49
2023/04/26 03:35:46;;;;;;;5.28;1.92;;;21.60;67.70;;;;;;4171025;28;20036;-43
2023/04/26 03:38:09;;;;;;;3.78;1.90;;;21.70;67.70;;;;;;4168527;28;20044;-45
2023/04/26 03:40:31;;;;;;;4.20;2.00;;;21.70;67.60;;;;;;4173746;28;20037;-48
2023/04/26 03:42:53;;;;;;;3.97;1.60;;;21.70;67.50;;;;;;4174435;28;20480;-48
2023/04/26 03:45:16;;;;;;;4.57;2.00;;;21.80;67.50;;;;;;4174631;28;20120;-48
2023/04/26 03:47:38;;;;;;;4.13;1.83;;;21.80;67.50;;;;;;4172052;28;20099;-51
2023/04/26 03:50:01;;;;;;;3.75;1.92;;;21.80;67.50;;;;;;4173836;28;20207;-50
2023/04/26 03:52:23;;;;;;;3.85;1.67;;;21.90;67.40;;;;;;4162273;28;20038;-49
2023/04/26 03:54:46;;;;;;;5.10;2.00;;;21.90;67.30;;;;;;4160001;28;20045;-46
2023/04/26 03:57:08;;;;;;;3.80;1.70;;;22.00;67.30;;;;;;4172134;28;20045;-52
2023/04/26 03:59:30;;;;;;;4.43;1.75;;;22.10;67.20;;;;;;4168361;28;20498;-47
2023/04/26 04:01:53;;;;;;;4.40;1.80;;;22.10;67.10;;;;;;4171610;28;20034;-51
2023/04/26 04:04:15;;;;;;;3.58;1.92;;;22.10;67.00;;;;;;4173290;28;20096;-48
2023/04/26 04:06:38;;;;;;;3.70;2.00;;;22.10;67.00;;;;;;4168544;28;20313;-46
2023/04/26 04:09:00;;;;;;;4.00;1.70;;;22.20;67.00;;;;;;4173334;28;20080;-48
2023/04/26 04:11:23;;;;;;;4.13;1.73;;;22.20;67.00;;;;;;4166791;28;20383;-45
2023/04/26 04:13:45;;;;;;;3.80;1.67;;;22.10;67.00;;;;;;4166129;28;20052;-48
2023/04/26 04:16:09;;;;;;;3.50;2.03;;;22.20;67.00;;;;;;4164627;28;20089;-46
2023/04/26 04:18:31;;;;;;;3.63;1.83;;;22.10;67.00;;;;;;4171033;28;20085;-45
2023/04/26 04:20:54;;;;;;;3.00;1.80;;;22.10;67.00;;;;;;4154707;28;20061;-43
2023/04/26 04:23:16;;;;;;;3.80;1.70;;;22.10;67.20;;;;;;4169357;28;20156;-42
2023/04/26 04:25:38;;;;;;;3.47;1.40;;;22.10;67.20;;;;;;4163818;28;20033;-44
2023/04/26 04:28:02;;;;;;;5.03;1.70;;;22.10;67.30;;;;;;4168758;28;20273;-42
2023/04/26 04:30:25;;;;;;;4.32;1.90;;;22.10;67.30;;;;;;4172969;28;20084;-46
2023/04/26 04:32:50;;;;;;;2.95;1.50;;;22.10;67.30;;;;;;4172670;28;20045;-44
2023/04/26 04:35:13;;;;;;;4.70;1.58;;;22.10;67.40;;;;;;4173821;28;20037;-49
2023/04/26 04:37:36;;;;;;;2.50;1.50;;;22.10;67.40;;;;;;4152689;28;20041;-47
2023/04/26 04:39:59;;;;;;;4.20;1.50;;;22.10;67.40;;;;;;4171949;28;20066;-45
2023/04/26 04:42:22;;;;;;;3.40;1.60;;;22.10;67.40;;;;;;4173989;28;20588;-50
2023/04/26 04:44:45;;;;;;;3.58;1.75;;;22.10;67.40;;;;;;4177659;28;20127;-45
2023/04/26 04:47:08;;;;;;;3.38;1.63;;;22.10;67.50;;;;;;4154243;28;20037;-51
2023/04/26 04:49:30;;;;;;;4.40;1.90;;;22.10;67.50;;;;;;4177759;28;20683;-49
2023/04/26 04:51:53;;;;;;;3.42;1.80;;;22.10;67.50;;;;;;4154339;28;20033;-44
2023/04/26 04:54:17;;;;;;;4.25;1.85;;;22.10;67.50;;;;;;4174668;28;20034;-44
2023/04/26 04:56:40;;;;;;;3.75;1.85;;;22.10;67.50;;;;;;4171919;28;20061;-44
2023/04/26 04:59:03;;;;;;;2.75;1.40;;;22.10;67.50;;;;;;4170157;28;20040;-45
2023/04/26 05:01:25;;;;;;;5.57;1.77;;;22.10;67.50;;;;;;4174041;28;20833;-51
2023/04/26 05:03:48;;;;;;;2.83;1.50;;;22.10;67.50;;;;;;4176653;28;20552;-46
2023/04/26 05:06:10;;;;;;;3.97;1.83;;;22.10;67.50;;;;;;4176737;28;20040;-46
2023/04/26 05:08:33;;;;;;;4.15;1.65;;;22.10;67.40;;;;;;4169637;28;20040;-45
2023/04/26 05:10:55;;;;;;;3.33;1.58;;;22.10;67.50;;;;;;4176915;28;20033;-47
2023/04/26 05:13:18;;;;;;;3.03;1.30;;;22.10;67.50;;;;;;4168857;28;20044;-51
2023/04/26 05:15:40;;;;;;;2.38;1.27;;;22.10;67.50;;;;;;4177974;28;20033;-42
2023/04/26 05:18:03;;;;;;;3.15;1.70;;;22.10;67.40;;;;;;4178292;28;20445;-44
2023/04/26 05:20:25;;;;;;;3.17;1.63;;;22.10;67.40;;;;;;4170943;28;20086;-44
2023/04/26 05:22:48;;;;;;;3.90;1.40;;;22.10;67.40;;;;;;4176439;28;20682;-46
2023/04/26 05:25:12;;;;;;;3.78;1.40;;;22.20;67.50;;;;;;4177944;28;20094;-49
2023/04/26 05:27:35;;;;;;;;;;;22.10;67.40;;;;;;4172417;28;20080;-49
2023/04/26 05:30:00;;;;;;;5.03;1.90;;;22.20;67.50;;;;;;4179657;28;20326;-45
2023/04/26 05:32:22;;;;;;;3.13;1.35;;;22.20;67.40;;;;;;4172882;28;20491;-48
2023/04/26 05:34:44;;;;;;;3.20;1.30;;;22.20;67.40;;;;;;4178671;28;20048;-46
2023/04/26 05:37:07;;;;;;;4.32;1.70;;;22.20;67.40;;;;;;4159985;28;20033;-52
2023/04/26 05:39:29;;;;;;;2.55;1.52;;;22.20;67.40;;;;;;4176730;28;20036;-51
2023/04/26 05:41:52;;;;;;;3.20;1.20;;;22.20;67.30;;;;;;4174862;28;20515;-46
2023/04/26 05:44:15;;;;;;;4.40;1.55;;;22.30;67.30;;;;;;4169744;28;20040;-46
2023/04/26 05:46:37;;;;;;;4.32;2.05;;;22.30;67.30;;;;;;4175097;28;20489;-46
2023/04/26 05:49:00;;;;;;;3.17;1.55;;;22.30;67.30;;;;;;4178575;28;20033;-51
2023/04/26 05:51:22;;;;;;;4.03;1.45;;;22.30;67.30;;;;;;4175291;28;20592;-49
2023/04/26 05:53:45;;;;;;;2.85;1.50;;;22.30;67.30;;;;;;4176498;28;20110;-49
2023/04/26 05:56:07;;;;;;;3.17;1.55;;;22.30;67.30;;;;;;4171988;28;20036;-46
2023/04/26 05:58:30;;;;;;;3.45;1.38;;;22.30;67.30;;;;;;4171295;28;20033;-46
2023/04/26 06:00:52;;;;;;;2.85;1.60;;;22.30;67.30;;;;;;4177715;28;20048;-49
2023/04/26 06:03:15;;;;;;;3.83;1.48;;;22.30;67.30;;;;;;4172420;28;20699;-48
2023/04/26 06:05:37;;;;;;;3.47;1.42;;;22.30;67.30;;;;;;4171729;28;20511;-46
2023/04/26 06:08:00;;;;;;;3.20;1.67;;;22.30;67.30;;;;;;4174512;28;20056;-51
2023/04/26 06:10:23;;;;;;;3.88;1.48;;;22.30;67.20;;;;;;4172306;28;20083;-48
2023/04/26 06:12:46;;;;;;;2.53;1.38;;;22.30;67.30;;;;;;4172553;28;20404;-46
2023/04/26 06:15:09;;;;;;;2.70;1.20;;;22.30;67.30;;;;;;4169274;28;20048;-48
2023/04/26 06:17:31;;;;;;;3.60;1.88;;;22.30;67.30;;;;;;4173202;28;20043;-49
2023/04/26 06:19:54;;;;;;;3.03;1.40;;;22.30;67.30;;;;;;4175147;28;20103;-51
2023/04/26 06:22:16;;;;;;;3.38;1.60;;;22.30;67.70;;;;;;4174607;28;20067;-52
2023/04/26 06:24:39;;;;;;;3.53;1.30;;;22.30;67.90;;;;;;4176422;28;20083;-49
2023/04/26 06:27:02;;;;;;;2.77;1.47;;;22.30;67.40;;;;;;4174663;28;20037;-46
2023/04/26 06:29:24;;;;;;;2.75;1.25;;;22.30;67.40;;;;;;4175181;28;20036;-49
2023/04/26 06:31:47;;;;;;;3.80;1.60;;;22.30;67.40;;;;;;4157567;28;20143;-51
2023/04/26 06:34:09;;;;;;;6.28;1.52;;;22.30;67.40;;;;;;4150879;28;20049;-50
2023/04/26 06:36:32;;;;;;;1.90;1.20;;;22.30;67.40;;;;;;4155410;28;20065;-46
2023/04/26 06:38:54;;;;;;;3.38;1.40;;;22.30;67.40;;;;;;4158341;28;20397;-50
2023/04/26 06:41:17;;;;;;;2.20;1.33;;;22.40;67.50;;;;;;4141202;28;20087;-47
2023/04/26 06:43:39;;;;;;;3.15;1.40;;;22.40;67.50;;;;;;4146739;28;20045;-51
2023/04/26 06:46:01;;;;;;;5.13;3.15;;;22.50;67.30;;;;;;4133529;28;20425;-50
2023/04/26 06:48:24;;;;;;;4.97;3.60;;;22.50;67.40;;;;;;4147757;28;20036;-48
2023/04/26 06:50:46;;;;;;;4.80;4.30;;;22.60;67.30;;;;;;4133343;28;20422;-48
2023/04/26 06:53:09;;;;;;;6.57;4.18;;;22.60;67.20;;;;;;4156707;28;20072;-50
2023/04/26 06:55:31;;;;;;;3.92;3.08;;;22.70;67.10;;;;;;4146363;28;20046;-48
2023/04/26 06:57:54;;;;;;;5.95;3.92;;;22.70;67.00;;;;;;4156575;28;20168;-51
2023/04/26 07:00:17;;;;;;;4.80;3.70;;;22.70;67.10;;;;;;4155966;28;20190;-51
2023/04/26 07:02:40;;;;;;;5.50;3.67;;;22.60;67.20;;;;;;4157838;28;20037;-50
2023/04/26 07:05:03;;;;;;;4.97;3.70;;;22.60;67.10;;;;;;4157542;28;20477;-48
2023/04/26 07:07:26;;;;;;;6.63;4.32;;;22.60;67.50;;;;;;4154704;28;20037;-46
2023/04/26 07:09:48;;;;;;;4.22;3.50;;;22.50;67.50;;;;;;4157290;28;21186;-50
2023/04/26 07:12:14;;;;;;;4.75;3.42;;;22.50;67.40;;;;;;4159273;28;20125;-50
2023/04/26 07:14:39;;;;;;;6.78;3.60;;;22.40;67.40;;;;;;4155762;28;20049;-49
2023/04/26 07:17:01;;;;;;;4.63;3.45;;;22.40;67.60;;;;;;4156933;28;20065;-46
2023/04/26 07:19:24;;;;;;;4.88;4.03;;;22.40;67.60;;;;;;4156313;28;20030;-50
2023/04/26 07:21:46;;;;;;;7.07;4.28;;;22.40;68.00;;;;;;4162747;28;20525;-46
2023/04/26 07:24:09;;;;;;;6.13;4.28;;;22.40;68.20;;;;;;4158063;28;20076;-49
2023/04/26 07:26:31;;;;;;;7.25;3.95;;;22.40;68.40;;;;;;4159202;28;20034;-44
2023/04/26 07:28:54;;;;;;;6.38;3.97;;;22.30;68.70;;;;;;4158130;28;20034;-45
2023/04/26 07:31:16;;;;;;;4.10;3.70;;;22.30;68.40;;;;;;4180306;28;20071;-48
2023/04/26 07:33:39;;;;;;;6.63;3.72;;;22.30;68.30;;;;;;4171631;28;20044;-48
2023/04/26 07:36:01;;;;;;;5.32;3.65;;;22.30;68.60;;;;;;4166430;28;20065;-46
2023/04/26 07:38:24;;;;;;;4.20;3.13;;;22.30;68.50;;;;;;4166396;28;20044;-45
2023/04/26 07:40:47;;;;;;;5.18;3.50;;;22.30;68.30;;;;;;4173293;28;20048;-49
2023/04/26 07:43:09;;;;;;;5.95;3.58;;;22.30;68.30;;;;;;4174012;28;20036;-47
2023/04/26 07:45:32;;;;;;;6.55;3.60;;;22.20;68.50;;;;;;4168551;28;20045;-47
2023/04/26 07:47:54;;;;;;;8.00;3.37;;;22.20;68.30;;;;;;4166808;28;20508;-47
2023/04/26 07:50:17;;;;;;;7.95;3.38;;;22.20;68.50;;;;;;4173276;28;20095;-45
2023/04/26 07:52:39;;;;;;;6.20;3.38;;;22.20;68.50;;;;;;4169961;28;20045;-48
2023/04/26 07:55:04;;;;;;;4.80;2.90;;;22.20;68.60;;;;;;4159367;28;20106;-43
2023/04/26 07:57:27;;;;;;;4.18;2.83;;;22.20;68.70;;;;;;4164696;28;20562;-51
2023/04/26 07:59:49;;;;;;;5.82;3.35;;;22.20;68.60;;;;;;4175349;28;20091;-49
2023/04/26 08:02:12;;;;;;;6.13;2.92;;;22.20;68.60;;;;;;4168457;28;20039;-49
2023/04/26 08:04:35;;;;;;;4.45;2.60;;;22.20;68.70;;;;;;4171864;28;20072;-48
2023/04/26 08:06:57;;;;;;;3.63;2.77;;;22.20;68.70;;;;;;4166055;28;20040;-50
2023/04/26 08:09:20;;;;;;;4.80;3.08;;;22.20;68.80;;;;;;4167250;28;20064;-50
2023/04/26 08:11:42;;;;;;;5.53;2.72;;;22.20;68.80;;;;;;4168576;28;20033;-42
2023/04/26 08:14:05;;;;;;;6.13;3.13;;;22.20;68.80;;;;;;4172371;28;20060;-44
2023/04/26 08:16:27;;;;;;;5.35;2.70;;;22.10;68.80;;;;;;4167369;28;20033;-46
2023/04/26 08:18:50;;;;;;;4.90;2.72;;;22.10;69.10;;;;;;4153431;28;20038;-50
2023/04/26 08:21:13;;;;;;;4.30;2.40;;;22.10;68.90;;;;;;4171504;28;20393;-45
2023/04/26 08:23:36;;;;;;;4.28;2.70;;;22.10;68.80;;;;;;4169360;28;20041;-46
2023/04/26 08:25:58;;;;;;;3.95;2.45;;;22.10;68.70;;;;;;4166560;28;20032;-48
2023/04/26 08:28:21;;;;;;;5.40;3.05;;;22.10;68.70;;;;;;4173328;28;20025;-44
2023/04/26 08:30:43;;;;;;;4.50;2.40;;;22.10;68.70;;;;;;4166707;28;20103;-41
2023/04/26 08:33:05;;;;;;;7.30;2.80;;;22.10;68.70;;;;;;4170928;28;20082;-44
2023/04/26 08:35:28;;;;;;;11.98;2.75;;;22.10;69.10;;;;;;4167363;28;20030;-41
2023/04/26 08:37:50;;;;;;;10.00;2.65;;;22.10;69.30;;;;;;4168180;28;20445;-41
2023/04/26 08:40:13;;;;;;;5.88;2.90;;;22.10;69.40;;;;;;4165844;28;20043;-42
2023/04/26 08:42:43;;;;;;;7.47;2.70;;;22.10;69.50;;;;;;4159489;28;20053;-41
2023/04/26 08:45:07;;;;;;;13.55;3.25;;;22.20;70.00;;;;;;4167166;28;20429;-43
2023/04/26 08:47:39;;;;;;;13.00;3.10;;;22.20;70.10;;;;;;4152457;28;20069;-43
2023/04/26 08:50:03;;;;;;;6.18;2.50;;;22.20;70.00;;;;;;4166520;28;20474;-40
2023/04/26 08:52:29;;;;;;;9.93;2.70;;;22.20;70.30;;;;;;4167973;28;20732;-41
2023/04/26 08:54:54;;;;;;;15.10;3.03;;;22.20;70.30;;;;;;4163192;28;20052;-45
2023/04/26 08:57:17;;;;;;;10.38;3.60;;;22.20;70.30;;;;;;4170640;28;20091;-44
2023/04/26 08:59:40;;;;;;;4.43;2.25;;;22.20;70.30;;;;;;4166985;28;20095;-43
2023/04/26 09:02:04;;;;;;;15.50;2.97;;;22.20;70.30;;;;;;4167089;28;20038;-46
2023/04/26 09:04:26;;;;;;;6.65;2.25;;;22.20;70.30;;;;;;4172418;28;20059;-43
2023/04/26 09:06:51;;;;;;;8.98;2.53;;;22.20;70.40;;;;;;4168832;28;20041;-46
2023/04/26 09:09:20;;;;;;;6.53;2.42;;;22.20;70.50;;;;;;4165772;28;20124;-42
2023/04/26 09:11:58;;;;;;;9.43;2.30;;;22.20;70.10;;;;;;4163548;28;20140;-45
2023/04/26 09:14:21;;;;;;;7.95;3.10;;;22.20;70.40;;;;;;4171424;28;20060;-44
2023/04/26 09:16:43;;;;;;;10.05;2.30;;;22.20;70.40;;;;;;4173506;28;20041;-43
2023/04/26 09:19:05;;;;;;;7.20;2.30;;;22.20;70.30;;;;;;4174113;28;20057;-44
2023/04/26 09:21:29;;;;;;;6.07;2.33;;;22.20;70.30;;;;;;4175846;28;20044;-43
2023/04/26 09:24:03;;;;;;;5.30;2.20;;;22.20;70.30;;;;;;4174051;28;20041;-41
2023/04/26 09:26:25;;;;;;;5.93;2.20;;;22.20;70.30;;;;;;4165814;28;20464;-44
2023/04/26 09:28:49;;;;;;;5.78;2.67;;;22.20;70.30;;;;;;4163920;28;20041;-40
2023/04/26 09:31:12;;;;;;;6.80;2.70;;;22.20;70.30;;;;;;4167219;28;20375;-43
2023/04/26 09:33:35;;;;;;;8.02;2.30;;;22.20;70.40;;;;;;4166411;28;20056;-44
2023/04/26 09:36:12;;;;;;;6.45;2.13;;;22.20;70.50;;;;;;4176906;28;20033;-44
2023/04/26 09:38:42;;;;;;;5.28;1.90;;;22.20;70.60;;;;;;4173636;28;20139;-46
2023/04/26 09:41:05;;;;;;;7.47;2.03;;;22.20;70.50;;;;;;4167217;28;20044;-42
2023/04/26 09:43:27;;;;;;;4.15;2.13;;;22.20;70.40;;;;;;4175822;28;20072;-42
2023/04/26 09:45:53;;;;;;;8.15;2.47;;;22.10;70.60;;;;;;4177849;28;20164;-41
2023/04/26 09:48:25;;;;;;;7.65;2.25;;;22.10;70.80;;;;;;4163465;28;20118;-40
2023/04/26 09:50:51;;;;;;;5.25;2.10;;;22.10;70.60;;;;;;4171939;28;20037;-47
2023/04/26 09:53:39;;;;;;;16.23;2.80;;;22.10;70.60;;;;;;4172919;28;20048;-43
2023/04/26 09:56:30;;;;;;;10.57;2.80;;;22.10;71.10;;;;;;4172442;28;20040;-41
2023/04/26 09:58:57;;;;;;;11.18;2.53;;;22.10;71.00;;;;;;4169045;28;20067;-45
2023/04/26 10:01:20;;;;;;;8.40;2.25;;;22.10;71.10;;;;;;4170312;28;20091;-41
2023/04/26 10:03:43;;;;;;;12.52;3.63;;;22.10;71.20;;;;;;4173558;28;20055;-47
2023/04/26 10:06:06;;;;;;;5.55;2.67;;;22.20;71.30;;;;;;4171360;28;20052;-48
2023/04/26 10:08:30;;;;;;;6.80;2.10;;;22.10;71.30;;;;;;4167910;28;20516;-47
2023/04/26 10:10:54;;;;;;;6.97;2.08;;;22.20;71.40;;;;;;4169083;28;20036;-41
2023/04/26 10:13:17;;;;;;;4.60;2.05;;;22.20;71.30;;;;;;4170782;28;20171;-45
2023/04/26 10:15:40;;;;;;;7.90;2.30;;;22.20;71.40;;;;;;4170271;28;20044;-47
2023/04/26 10:18:03;;;;;;;5.05;2.03;;;22.20;71.40;;;;;;4166010;28;20045;-48
2023/04/26 10:20:28;;;;;;;6.68;2.30;;;22.20;71.30;;;;;;4162916;28;20049;-47
2023/04/26 10:22:59;;;;;;;11.95;2.15;;;22.20;71.50;;;;;;4163736;28;20503;-44
2023/04/26 10:25:38;;;;;;;5.85;2.20;;;22.20;71.30;;;;;;4161168;28;20044;-47
2023/04/26 10:28:02;;;;;;;19.27;2.38;;;22.20;71.40;;;;;;4164754;28;20407;-47
2023/04/26 10:30:24;;;;;;;;;;;22.20;71.40;;;;;;4157832;28;20313;-48
2023/04/26 10:32:52;;;;;;;5.60;2.53;;;22.20;71.30;;;;;;4162534;28;19913;-44
2023/04/26 10:35:16;;;;;;;6.07;2.35;;;22.20;71.40;;;;;;4163865;28;20582;-44
2023/04/26 10:38:01;;;;;;;;;;;22.20;71.40;;;;;;4155460;28;20033;-45
2023/04/26 10:40:29;;;;;;;5.47;1.98;;;22.20;71.20;;;;;;4158402;28;19912;-43
2023/04/26 10:43:14;;;;;;;6.57;1.92;;;22.20;71.10;;;;;;4157550;28;20041;-47
2023/04/26 10:45:38;;;;;;;4.95;1.92;;;22.20;71.10;;;;;;4150499;28;20044;-43
2023/04/26 10:48:19;;;;;;;;;;;22.20;71.00;;;;;;4159810;28;21649;-48
2023/04/26 10:51:11;;;;;;;5.75;2.08;;;22.20;71.00;;;;;;4140907;28;21437;-49
2023/04/26 10:53:53;;;;;;;5.32;2.33;;;22.20;71.00;;;;;;4143388;28;20167;-44
2023/04/26 10:56:31;;;;;;;6.20;2.17;;;22.20;70.90;;;;;;4160522;28;20033;-44
2023/04/26 10:59:11;;;;;;;5.28;2.55;;;22.30;71.00;;;;;;4160133;28;20041;-42
2023/04/26 11:01:33;;;;;;;6.07;2.22;;;22.20;70.90;;;;;;4163387;28;20052;-44
2023/04/26 11:03:58;;;;;;;5.40;2.38;;;22.30;70.90;;;;;;4163942;28;20120;-48
2023/04/26 11:06:24;;;;;;;24.15;2.85;;;22.20;70.70;;;;;;4158961;28;20619;-44
2023/04/26 11:08:48;;;;;;;8.05;2.60;;;22.20;70.80;;;;;;4161931;28;20529;-45
2023/04/26 11:11:09;;;;;;;;;;;22.20;70.80;;;;;;4162750;28;20045;-47
2023/04/26 11:13:34;;;;;;;6.22;2.40;;;22.20;70.50;;;;;;4158964;28;20340;-47
2023/04/26 11:16:08;;;;;;;4.65;2.13;;;22.20;70.40;;;;;;4161687;28;20065;-44
2023/04/26 11:18:31;;;;;;;7.28;2.40;;;22.20;70.30;;;;;;4158402;28;20047;-45
2023/04/26 11:20:54;;;;;;;5.75;2.50;;;22.20;70.30;;;;;;4163843;28;20040;-45
2023/04/26 11:23:18;;;;;;;5.10;2.13;;;22.20;70.50;;;;;;4161638;28;20037;-45
2023/04/26 11:25:41;;;;;;;4.95;2.47;;;22.20;70.30;;;;;;4160204;28;20052;-44
2023/04/26 11:28:05;;;;;;;4.38;2.00;;;22.20;70.90;;;;;;4158230;28;20044;-41
2023/04/26 11:30:31;;;;;;;5.93;2.20;;;22.20;70.40;;;;;;4156095;28;20064;-43
2023/04/26 11:32:54;;;;;;;3.78;2.05;;;22.20;70.50;;;;;;4157511;28;20040;-43
2023/04/26 11:35:16;;;;;;;8.75;2.40;;;22.20;70.50;;;;;;4158183;28;20973;-42
2023/04/26 11:37:39;;;;;;;5.18;2.40;;;22.20;70.30;;;;;;4162664;28;20139;-44
2023/04/26 11:40:02;;;;;;;5.97;2.17;;;22.20;70.40;;;;;;4159527;28;20040;-45
2023/04/26 11:42:25;;;;;;;11.80;3.13;;;22.20;70.30;;;;;;4160046;28;20094;-45
2023/04/26 11:44:51;;;;;;;5.07;2.10;;;22.20;70.70;;;;;;4159318;28;20041;-42
2023/04/26 11:47:13;;;;;;;4.97;1.98;;;22.20;71.40;;;;;;4161034;28;20028;-44
2023/04/26 11:49:37;;;;;;;19.33;3.63;;;22.20;70.90;;;;;;4158751;28;20075;-46
2023/04/26 11:52:00;;;;;;;9.82;2.40;;;22.20;71.00;;;;;;4159304;28;20508;-48
2023/04/26 11:54:33;;;;;;;6.40;2.38;;;22.20;70.90;;;;;;4163136;28;20045;-50
2023/04/26 11:56:56;;;;;;;10.75;2.50;;;22.20;70.80;;;;;;4166561;28;20052;-55
2023/04/26 11:59:30;;;;;;;6.67;2.60;;;22.20;71.10;;;;;;4170009;28;21586;-50
2023/04/26 12:01:53;;;;;;;7.27;2.43;;;22.20;71.10;;;;;;4162511;28;20276;-54
2023/04/26 12:04:15;;;;;;;9.52;2.97;;;22.20;71.00;;;;;;4168520;28;20503;-55
2023/04/26 12:06:46;;;;;;;13.23;2.72;;;22.20;71.10;;;;;;4170150;28;20139;-55
2023/04/26 12:09:10;;;;;;;15.15;3.22;;;22.30;71.00;;;;;;4166492;28;20082;-55
2023/04/26 12:11:31;;;;;;;;;;;22.20;70.60;;;;;;4169700;28;20477;-54
2023/04/26 12:14:01;;;;;;;22.92;2.70;;;22.20;70.40;;;;;;4166176;28;19917;-51
2023/04/26 12:16:23;;;;;;;10.52;2.72;;;22.20;70.30;;;;;;4167067;28;20044;-50
2023/04/26 12:18:51;;;;;;;5.40;2.10;;;22.20;70.30;;;;;;4164129;28;20662;-53
2023/04/26 12:21:14;;;;;;;5.50;2.17;;;22.20;70.40;;;;;;4163288;28;20473;-59
2023/04/26 12:23:40;;;;;;;7.53;1.95;;;22.20;70.50;;;;;;4153070;28;20568;-57
2023/04/26 12:26:03;;;;;;;7.72;2.38;;;22.20;70.60;;;;;;4167290;28;20522;-59
2023/04/26 12:28:26;;;;;;;5.93;2.10;;;22.20;70.70;;;;;;4166681;28;20481;-58
2023/04/26 12:30:49;;;;;;;7.18;2.22;;;22.10;70.70;;;;;;4171185;28;20091;-58